UKHH/HRK METAR and TAF weather

Enter ICAO airport designator
Station Type Date Time Source
UKHH METAR 2020/01/22 21:00 UTC NOAA

UKHH 222100Z 30005MPS 9999 SCT011 OVC021 01/M01 Q1002 R25/290079 NOSIG


Station Type Date Time Source
UKHH Decoded METAR 2020/01/22 21:00 UTC NOAA

Kharkiv, Ukraine (UKHH) 49-58N 036-08E 155M
Jan 22, 2020 - 04:00 PM EST / 2020.01.22 2100 UTC
Wind: from the WNW (300 degrees) at 11 MPH (10 KT):0
Visibility: greater than 7 mile(s):0
Sky conditions: overcast
Temperature: 33 F (1 C)
Windchill: 24 F (-4 C):1
Dew Point: 30 F (-1 C)
Relative Humidity: 86%
Pressure (altimeter): 29.59 in. Hg (1002 hPa)
ob: UKHH 222100Z 30005MPS 9999 SCT011 OVC021 01/M01 Q1002 R25/290079 NOSIG
cycle: 21

Station Type Date Time Source
UKHH TAF 2020/01/22 18:24 UTC NOAA

TAF UKHH 221710Z 2218/2318 27007G13MPS 6000 OVC006 TX01/2312Z TNM02/2304Z
TEMPO 2218/2224 1200 -SHSN BR BKN003 BKN015CB PROB40
TEMPO 2218/2224 30009G16MPS -FZRA
TEMPO 2300/2318 2100 -SHSN BR SCT003 BKN015CB PROB40
TEMPO 2300/2318 32009G16MPS

Example: see airport list